Terminal Aerodrome Forecast
Issued by NWS Memphis, TN

Home | Current Version | Previous Version | Text Only | Print | Product List | Glossary On
Versions: 1 2 3 4 5 6 7 8 9 10 11 12 13 14 15 16 17 18 19 20 21 22 23 24 25 26 27 28 29 30 31 32
000
FTUS44 KMEG 300533
TAFMEM
TAF
KMEM 300533Z 3006/0106 24009G20KT P6SM VCTS FEW025 BKN045CB
     FM300630 22011KT P6SM SCT050 OVC100
     FM301400 28008KT P6SM SCT060
     FM010000 22005KT P6SM FEW250=

USA.gov is the U.S. government's official web portal to all federal, state and local government web resources and services.